Time;durP1;ratioP1;P1;durP2;ratioP2;P2;SDS_P1;SDS_P2;PMS_P1;PMS_P2;Temp;Humidity;BMP_temperature;BMP_pressure;BME280_temperature;BME280_humidity;BME280_pressure;Samples;Min_cycle;Max_cycle;Signal;HPM_P1;HPM_P2
2023/05/13 00:00:06;;;;;;;7.93;3.55;;;11.80;98.40;;;;;;5074717;28;20425;-64
2023/05/13 00:02:32;;;;;;;7.15;3.03;;;11.80;98.30;;;;;;5089088;28;20056;-64
2023/05/13 00:04:58;;;;;;;6.18;3.95;;;11.80;97.40;;;;;;5074299;27;20035;-70
2023/05/13 00:07:24;;;;;;;6.53;3.35;;;11.80;96.40;;;;;;5074652;28;20146;-67
2023/05/13 00:09:50;;;;;;;3.72;3.25;;;11.80;95.80;;;;;;5074338;28;20058;-68
2023/05/13 00:12:16;;;;;;;4.60;3.00;;;11.80;96.00;;;;;;5075153;28;20051;-70
2023/05/13 00:14:42;;;;;;;7.43;3.13;;;11.70;95.70;;;;;;5090047;28;20044;-64
2023/05/13 00:17:07;;;;;;;6.63;3.38;;;11.70;96.00;;;;;;5076157;28;20051;-67
2023/05/13 00:19:33;;;;;;;7.78;3.15;;;11.70;96.50;;;;;;5073394;28;20047;-65
2023/05/13 00:21:59;;;;;;;12.13;3.30;;;11.70;97.00;;;;;;5091083;28;20084;-64
2023/05/13 00:24:25;;;;;;;9.70;3.80;;;11.60;97.80;;;;;;5074229;28;20055;-63
2023/05/13 00:26:50;;;;;;;9.25;3.20;;;11.60;98.20;;;;;;5091669;28;20035;-71
2023/05/13 00:29:16;;;;;;;8.57;3.25;;;11.50;98.50;;;;;;5074563;28;20055;-72
2023/05/13 00:31:42;;;;;;;6.63;3.47;;;11.50;98.80;;;;;;5082744;28;20130;-66
2023/05/13 00:34:08;;;;;;;11.23;3.28;;;11.40;99.80;;;;;;5057671;28;20489;-66
2023/05/13 00:36:33;;;;;;;6.80;3.70;;;11.40;99.90;;;;;;5090197;28;20075;-64
2023/05/13 00:38:59;;;;;;;9.18;3.78;;;11.30;99.90;;;;;;5074240;28;20444;-64
2023/05/13 00:41:25;;;;;;;5.63;3.30;;;11.30;99.90;;;;;;5074768;28;20044;-64
2023/05/13 00:43:54;;;;;;;4.85;3.35;;;11.20;99.90;;;;;;5073499;28;20039;-68
2023/05/13 00:46:20;;;;;;;5.30;3.58;;;11.20;99.90;;;;;;5091377;28;20108;-69
2023/05/13 00:48:46;;;;;;;6.85;3.85;;;11.20;99.90;;;;;;5089321;28;20493;-66
2023/05/13 00:51:12;;;;;;;5.72;3.50;;;11.10;99.90;;;;;;5096772;27;20047;-64
2023/05/13 00:53:38;;;;;;;7.45;4.60;;;11.10;99.90;;;;;;5076183;28;20055;-70
2023/05/13 00:56:04;;;;;;;9.50;4.00;;;11.10;99.90;;;;;;5091021;28;20073;-67
2023/05/13 00:58:30;;;;;;;7.97;4.15;;;11.10;99.90;;;;;;5089922;28;20493;-64
2023/05/13 01:01:41;;;;;;;8.40;4.15;;;11.10;99.90;;;;;;5090175;28;20077;-70
2023/05/13 01:04:29;;;;;;;10.90;4.03;;;11.10;99.90;;;;;;5104587;28;20066;-69
2023/05/13 01:07:33;;;;;;;8.63;3.95;;;11.10;99.90;;;;;;5089263;28;20070;-68
2023/05/13 01:10:02;;;;;;;7.57;4.00;;;11.10;99.90;;;;;;5079664;28;20054;-72
2023/05/13 01:12:43;;;;;;;8.10;4.10;;;11.00;99.90;;;;;;5072732;28;20071;-65
2023/05/13 01:15:20;;;;;;;5.53;4.32;;;11.00;99.90;;;;;;5088355;28;20104;-70
2023/05/13 01:18:10;;;;;;;4.30;3.78;;;10.90;99.90;;;;;;5071399;28;20406;-70
2023/05/13 01:20:39;;;;;;;5.40;3.80;;;10.80;99.90;;;;;;5087965;28;20176;-67
2023/05/13 01:23:05;;;;;;;4.40;3.80;;;10.80;99.90;;;;;;5072093;28;20481;-65
2023/05/13 01:25:31;;;;;;;5.57;4.18;;;10.80;99.90;;;;;;5087127;28;20040;-65
2023/05/13 01:27:58;;;;;;;6.88;3.50;;;10.80;99.90;;;;;;5072025;28;20402;-71
2023/05/13 01:30:24;;;;;;;4.03;3.38;;;10.90;99.90;;;;;;5088335;28;20040;-65
2023/05/13 01:32:51;;;;;;;7.80;3.75;;;10.90;99.90;;;;;;5055580;28;20054;-73
2023/05/13 01:35:17;;;;;;;5.28;3.67;;;10.90;99.90;;;;;;5071988;28;20099;-66
2023/05/13 01:37:43;;;;;;;5.03;3.75;;;10.90;99.90;;;;;;5071367;28;20440;-64
2023/05/13 01:40:10;;;;;;;8.18;3.30;;;10.90;99.90;;;;;;5072100;28;20050;-64
2023/05/13 01:42:36;;;;;;;5.65;3.47;;;11.00;99.90;;;;;;5089071;28;20044;-70
2023/05/13 01:45:02;;;;;;;5.55;3.58;;;11.00;99.90;;;;;;5071470;28;20036;-69
2023/05/13 01:47:28;;;;;;;8.80;3.92;;;11.10;99.90;;;;;;5106621;28;20430;-71
2023/05/13 01:49:54;;;;;;;10.88;3.45;;;11.20;99.90;;;;;;5071275;28;20130;-71
2023/05/13 01:52:20;;;;;;;16.08;3.78;;;11.40;99.90;;;;;;5072656;28;20056;-67
2023/05/13 01:54:45;;;;;;;6.22;3.20;;;11.50;99.90;;;;;;5054777;28;20036;-62
2023/05/13 01:57:11;;;;;;;4.05;3.35;;;11.60;99.90;;;;;;5071553;28;20508;-63
2023/05/13 01:59:37;;;;;;;3.78;2.97;;;11.70;99.90;;;;;;5070955;28;20051;-68
2023/05/13 02:02:04;;;;;;;11.05;4.03;;;11.90;99.90;;;;;;5121954;28;20051;-68
2023/05/13 02:04:30;;;;;;;4.38;3.85;;;11.90;99.90;;;;;;5093848;28;20053;-62
2023/05/13 02:06:55;;;;;;;4.00;3.50;;;12.00;99.90;;;;;;5071333;28;20883;-63
2023/05/13 02:09:21;;;;;;;5.60;3.50;;;12.10;99.90;;;;;;5070878;28;20036;-67
2023/05/13 02:11:47;;;;;;;7.32;3.70;;;12.10;99.90;;;;;;5071665;28;20130;-72
2023/05/13 02:14:13;;;;;;;14.40;4.45;;;12.10;99.90;;;;;;5078489;28;20054;-68
2023/05/13 02:16:39;;;;;;;7.80;4.30;;;11.90;99.90;;;;;;5088062;28;20043;-63
2023/05/13 02:19:05;;;;;;;7.70;4.05;;;11.80;99.90;;;;;;5071449;28;20466;-63
2023/05/13 02:21:31;;;;;;;9.57;4.15;;;11.70;99.90;;;;;;5088132;28;20050;-70
2023/05/13 02:23:57;;;;;;;11.43;4.32;;;11.60;99.90;;;;;;5074575;28;20121;-66
2023/05/13 02:26:23;;;;;;;7.97;4.18;;;11.50;99.90;;;;;;5089697;28;20081;-66
2023/05/13 02:28:48;;;;;;;13.68;4.82;;;11.50;99.90;;;;;;5074498;28;20055;-68
2023/05/13 02:31:14;;;;;;;11.90;4.50;;;11.50;99.90;;;;;;5074946;28;20048;-71
2023/05/13 02:33:40;;;;;;;7.72;4.65;;;11.40;99.90;;;;;;5091873;28;20108;-73
2023/05/13 02:36:06;;;;;;;9.63;5.20;;;11.30;99.90;;;;;;5077604;28;20402;-65
2023/05/13 02:38:32;;;;;;;8.90;4.45;;;11.20;99.90;;;;;;5110367;28;20043;-65
2023/05/13 02:40:59;;;;;;;6.80;4.60;;;11.20;99.90;;;;;;5074437;28;20067;-67
2023/05/13 02:43:26;;;;;;;6.97;4.20;;;11.10;99.90;;;;;;5091742;28;20051;-65
2023/05/13 02:45:52;;;;;;;7.57;4.80;;;11.10;99.90;;;;;;5076033;28;20743;-65
2023/05/13 02:48:18;;;;;;;6.97;4.68;;;11.00;99.90;;;;;;5091570;28;20050;-65
2023/05/13 02:50:44;;;;;;;5.85;4.70;;;10.90;99.90;;;;;;5091273;28;20134;-67
2023/05/13 02:53:10;;;;;;;8.90;4.43;;;10.90;99.90;;;;;;5091269;28;20134;-67
2023/05/13 02:55:36;;;;;;;7.78;4.68;;;10.90;99.90;;;;;;5099267;27;20339;-64
2023/05/13 02:58:02;;;;;;;12.35;5.60;;;10.90;99.90;;;;;;5080840;28;20042;-72
2023/05/13 03:00:27;;;;;;;14.00;4.95;;;10.90;99.90;;;;;;5055474;28;20097;-68
2023/05/13 03:02:54;;;;;;;7.43;5.15;;;10.80;99.90;;;;;;5086142;28;20051;-69
2023/05/13 03:05:20;;;;;;;7.38;4.80;;;10.80;99.90;;;;;;5091166;27;20048;-69
2023/05/13 03:07:46;;;;;;;7.30;4.88;;;10.80;99.90;;;;;;5074300;28;20051;-68
2023/05/13 03:10:12;;;;;;;9.90;5.50;;;10.80;99.90;;;;;;5090972;28;20089;-66
2023/05/13 03:12:38;;;;;;;14.30;5.13;;;10.80;99.90;;;;;;5074569;28;20046;-66
2023/05/13 03:15:04;;;;;;;9.13;4.97;;;10.80;99.90;;;;;;5090589;28;20039;-66
2023/05/13 03:17:32;;;;;;;6.30;4.60;;;10.90;99.90;;;;;;5088897;27;20043;-65
2023/05/13 03:19:57;;;;;;;13.13;5.60;;;10.90;99.90;;;;;;5091024;28;20059;-69
2023/05/13 03:22:23;;;;;;;8.70;5.20;;;10.90;99.90;;;;;;5074499;28;20044;-65
2023/05/13 03:24:49;;;;;;;8.60;4.63;;;10.90;99.90;;;;;;5090841;28;20039;-64
2023/05/13 03:27:15;;;;;;;11.13;5.10;;;10.90;99.90;;;;;;5073582;28;20085;-67
2023/05/13 03:29:40;;;;;;;5.72;4.97;;;10.90;99.90;;;;;;5090929;28;20124;-66
2023/05/13 03:32:06;;;;;;;8.15;4.97;;;11.00;99.90;;;;;;5073675;28;20047;-65
2023/05/13 03:34:35;;;;;;;7.55;4.65;;;11.00;99.90;;;;;;5090873;28;20047;-64
2023/05/13 03:37:00;;;;;;;9.43;4.85;;;11.00;99.90;;;;;;5091130;28;20051;-70
2023/05/13 03:39:26;;;;;;;7.75;5.07;;;11.00;99.90;;;;;;5073739;28;20446;-66
2023/05/13 03:41:52;;;;;;;10.35;6.07;;;11.00;99.90;;;;;;5074126;27;20047;-67
2023/05/13 03:44:17;;;;;;;8.18;5.18;;;11.00;99.90;;;;;;5098045;28;20427;-69
2023/05/13 03:46:43;;;;;;;7.88;5.13;;;11.00;99.90;;;;;;5073760;28;20051;-70
2023/05/13 03:49:09;;;;;;;10.23;4.72;;;10.90;99.90;;;;;;5072886;28;20126;-65
2023/05/13 03:51:35;;;;;;;10.88;5.10;;;10.90;99.90;;;;;;5073545;28;20126;-68
2023/05/13 03:54:01;;;;;;;9.63;4.60;;;10.90;99.90;;;;;;5089971;28;20040;-63
2023/05/13 03:56:27;;;;;;;7.38;5.30;;;10.90;99.90;;;;;;5090585;28;21062;-71
2023/05/13 03:58:53;;;;;;;7.95;5.15;;;10.80;99.90;;;;;;5090978;28;20114;-66
2023/05/13 04:01:20;;;;;;;8.38;5.38;;;10.80;99.90;;;;;;5073173;28;20093;-66
2023/05/13 04:03:45;;;;;;;9.10;5.47;;;10.80;99.90;;;;;;5073272;28;20060;-67
2023/05/13 04:06:13;;;;;;;9.45;5.45;;;10.80;99.90;;;;;;5089599;28;20138;-67
2023/05/13 04:08:39;;;;;;;8.02;5.20;;;10.80;99.90;;;;;;5093188;27;20052;-68
2023/05/13 04:11:05;;;;;;;12.88;5.57;;;10.80;99.90;;;;;;5075419;28;20428;-70
2023/05/13 04:13:35;;;;;;;9.57;5.32;;;10.80;99.90;;;;;;5073607;28;20120;-68
2023/05/13 04:16:01;;;;;;;9.15;5.80;;;10.80;99.90;;;;;;5089587;28;20087;-66
2023/05/13 04:18:29;;;;;;;10.65;5.22;;;10.80;99.90;;;;;;5056975;27;20039;-67
2023/05/13 04:20:54;;;;;;;5.95;5.25;;;10.80;99.90;;;;;;5076232;28;20050;-65
2023/05/13 04:23:20;;;;;;;6.47;5.78;;;10.80;99.90;;;;;;5124110;27;20142;-73
2023/05/13 04:25:52;;;;;;;9.98;5.40;;;10.80;99.90;;;;;;5073359;28;20461;-65
2023/05/13 04:28:19;;;;;;;6.53;5.40;;;10.80;99.90;;;;;;5077468;27;20409;-68
2023/05/13 04:30:45;;;;;;;9.98;5.32;;;10.80;99.90;;;;;;5089452;27;20132;-68
2023/05/13 04:33:11;;;;;;;14.30;6.55;;;10.80;99.90;;;;;;5089137;28;20118;-65
2023/05/13 04:35:36;;;;;;;10.98;5.63;;;10.90;99.90;;;;;;5089604;28;20040;-71
2023/05/13 04:38:03;;;;;;;10.50;5.38;;;10.90;99.90;;;;;;5107575;28;20051;-71
2023/05/13 04:40:29;;;;;;;8.85;5.95;;;10.90;99.90;;;;;;5088874;28;20050;-68
2023/05/13 04:42:55;;;;;;;10.00;5.95;;;10.90;99.90;;;;;;5087644;28;20051;-74
2023/05/13 04:45:21;;;;;;;7.45;4.97;;;11.00;99.90;;;;;;5072886;28;20054;-64
2023/05/13 04:47:47;;;;;;;9.50;5.38;;;11.00;99.90;;;;;;5072411;28;20413;-65
2023/05/13 04:50:13;;;;;;;6.45;5.07;;;11.00;99.90;;;;;;5093497;27;20051;-69
2023/05/13 04:52:41;;;;;;;6.57;5.22;;;11.00;99.90;;;;;;5079798;28;20057;-68
2023/05/13 04:55:08;;;;;;;18.90;5.18;;;11.10;99.90;;;;;;5072054;28;20043;-63
2023/05/13 04:57:34;;;;;;;7.63;5.70;;;11.10;99.90;;;;;;5072692;28;20535;-66
2023/05/13 05:00:00;;;;;;;16.55;6.20;;;11.10;99.90;;;;;;5072781;28;20428;-66
2023/05/13 05:02:28;;;;;;;10.57;5.20;;;11.20;99.90;;;;;;5071842;28;20143;-68
2023/05/13 05:04:55;;;;;;;11.95;6.03;;;11.20;99.90;;;;;;5089103;28;20056;-73
2023/05/13 05:07:21;;;;;;;8.38;5.20;;;11.30;99.90;;;;;;5088620;28;20118;-67
2023/05/13 05:09:46;;;;;;;10.95;5.18;;;11.30;99.90;;;;;;5073078;27;20171;-71
2023/05/13 05:12:13;;;;;;;16.52;6.50;;;11.30;99.90;;;;;;5071478;28;20044;-69
2023/05/13 05:14:39;;;;;;;9.85;5.25;;;11.40;99.90;;;;;;5089193;28;20496;-65
2023/05/13 05:17:05;;;;;;;9.32;5.18;;;11.40;99.90;;;;;;5088375;28;20096;-71
2023/05/13 05:19:31;;;;;;;8.75;5.30;;;11.50;99.90;;;;;;5088663;28;20085;-65
2023/05/13 05:21:57;;;;;;;8.00;5.65;;;11.50;99.90;;;;;;5089815;28;20122;-75
2023/05/13 05:24:23;;;;;;;5.65;4.80;;;11.50;99.90;;;;;;5088815;28;20108;-70
2023/05/13 05:26:48;;;;;;;7.72;5.40;;;11.60;99.90;;;;;;5072169;28;20126;-64
2023/05/13 05:29:14;;;;;;;9.02;5.18;;;11.60;99.90;;;;;;5088089;28;20047;-70
2023/05/13 05:31:40;;;;;;;7.50;4.97;;;11.60;99.90;;;;;;5056423;28;20088;-73
2023/05/13 05:34:05;;;;;;;9.40;4.60;;;11.70;99.90;;;;;;5088182;28;20096;-69
2023/05/13 05:36:32;;;;;;;14.68;4.97;;;11.80;99.90;;;;;;5106781;28;20067;-64
2023/05/13 05:38:57;;;;;;;8.45;4.65;;;11.90;99.90;;;;;;5088793;28;20481;-64
2023/05/13 05:41:23;;;;;;;11.65;5.38;;;12.10;99.90;;;;;;5088134;28;20087;-68
2023/05/13 05:43:49;;;;;;;7.25;5.00;;;12.20;99.90;;;;;;5089737;28;20167;-72
2023/05/13 05:46:15;;;;;;;10.02;5.47;;;12.20;99.90;;;;;;5087826;28;20039;-69
2023/05/13 05:48:41;;;;;;;7.55;5.35;;;12.30;99.90;;;;;;5088847;28;20043;-69
2023/05/13 05:51:07;;;;;;;13.57;5.43;;;12.30;99.90;;;;;;5071350;28;20047;-73
2023/05/13 05:53:34;;;;;;;7.85;5.00;;;12.40;99.90;;;;;;5088267;28;20508;-67
2023/05/13 05:56:00;;;;;;;5.55;4.95;;;12.40;99.90;;;;;;5089431;28;20123;-72
2023/05/13 05:58:26;;;;;;;8.35;4.78;;;12.50;99.90;;;;;;5091198;28;20132;-65
2023/05/13 06:00:53;;;;;;;10.48;5.10;;;12.70;99.90;;;;;;5090161;28;20046;-65
2023/05/13 06:03:20;;;;;;;6.13;5.00;;;12.70;99.90;;;;;;5091969;28;20345;-68
2023/05/13 06:05:45;;;;;;;7.97;5.75;;;12.80;99.90;;;;;;5078705;28;20039;-67
2023/05/13 06:08:12;;;;;;;10.07;5.43;;;12.80;99.90;;;;;;5064087;28;20199;-68
2023/05/13 06:10:37;;;;;;;7.25;4.43;;;12.80;99.90;;;;;;5069700;27;20042;-66
2023/05/13 06:13:03;;;;;;;9.93;5.10;;;12.80;99.90;;;;;;5075460;28;20508;-69
2023/05/13 06:15:29;;;;;;;9.82;4.97;;;12.90;99.90;;;;;;5091846;28;20158;-71
2023/05/13 06:17:55;;;;;;;10.18;4.78;;;13.00;99.90;;;;;;5075435;28;20047;-68
2023/05/13 06:20:21;;;;;;;7.90;5.35;;;13.10;99.90;;;;;;5091642;27;20470;-74
2023/05/13 06:22:47;;;;;;;8.88;5.30;;;13.20;99.90;;;;;;5103476;28;20047;-69
2023/05/13 06:25:13;;;;;;;8.15;4.80;;;13.20;99.90;;;;;;5092212;28;20048;-64
2023/05/13 06:27:39;;;;;;;8.45;4.68;;;13.20;99.90;;;;;;5058403;28;20195;-68
2023/05/13 06:30:05;;;;;;;10.20;5.07;;;13.30;99.90;;;;;;5075319;28;20029;-68
2023/05/13 06:32:31;;;;;;;8.07;4.82;;;13.30;99.90;;;;;;5092106;28;20046;-64
2023/05/13 06:34:57;;;;;;;7.75;4.97;;;13.40;99.90;;;;;;5075664;28;20483;-67
2023/05/13 06:37:23;;;;;;;8.80;4.65;;;13.40;99.90;;;;;;5074320;28;20052;-69
2023/05/13 06:39:49;;;;;;;8.73;5.03;;;13.50;99.90;;;;;;5126275;27;20044;-64
2023/05/13 06:42:15;;;;;;;6.20;4.78;;;13.50;99.90;;;;;;5125934;27;20072;-64
2023/05/13 06:44:40;;;;;;;11.48;5.30;;;13.60;99.90;;;;;;5091855;28;20054;-65
2023/05/13 06:47:09;;;;;;;8.48;4.53;;;13.80;99.90;;;;;;5092952;28;20055;-71
2023/05/13 06:49:34;;;;;;;11.55;5.18;;;14.00;99.90;;;;;;5091135;28;20099;-67
2023/05/13 06:52:00;;;;;;;6.95;5.25;;;14.10;99.90;;;;;;5125548;27;20043;-71
2023/05/13 06:54:26;;;;;;;7.60;4.72;;;14.10;98.70;;;;;;5090859;28;20060;-72
2023/05/13 06:56:53;;;;;;;7.68;5.78;;;14.20;99.90;;;;;;5092026;28;20043;-69
2023/05/13 06:59:20;;;;;;;9.30;4.90;;;14.20;99.90;;;;;;5119042;27;20047;-65
2023/05/13 07:01:46;;;;;;;7.57;4.40;;;14.20;99.90;;;;;;5091264;28;20051;-65
2023/05/13 07:04:12;;;;;;;12.10;4.80;;;14.30;99.90;;;;;;5090810;28;20055;-65
2023/05/13 07:06:37;;;;;;;8.98;4.97;;;14.30;99.90;;;;;;5074013;28;20059;-66
2023/05/13 07:09:03;;;;;;;10.48;5.25;;;14.50;99.90;;;;;;5063670;28;20055;-70
2023/05/13 07:11:29;;;;;;;12.38;5.07;;;14.60;99.90;;;;;;5090545;28;20086;-72
2023/05/13 07:13:54;;;;;;;10.50;4.55;;;14.70;96.70;;;;;;5090458;28;20116;-65
2023/05/13 07:16:20;;;;;;;8.80;5.25;;;14.90;97.30;;;;;;5085827;28;20070;-67
2023/05/13 07:18:46;;;;;;;7.22;4.90;;;15.00;96.20;;;;;;5095826;28;20485;-68
2023/05/13 07:21:13;;;;;;;7.55;4.57;;;15.10;94.20;;;;;;5090550;28;20477;-66
2023/05/13 07:23:39;;;;;;;9.68;4.60;;;15.20;94.40;;;;;;5109303;28;20414;-67
2023/05/13 07:26:05;;;;;;;5.88;4.60;;;15.40;97.00;;;;;;5074208;28;20108;-71
2023/05/13 07:28:30;;;;;;;5.82;4.63;;;15.60;89.60;;;;;;5090636;28;20051;-69
2023/05/13 07:30:57;;;;;;;7.20;4.10;;;15.70;88.50;;;;;;5099131;27;20420;-69
2023/05/13 07:33:23;;;;;;;9.95;4.10;;;15.90;90.70;;;;;;5107135;28;20039;-71
2023/05/13 07:35:48;;;;;;;5.07;4.22;;;16.20;92.00;;;;;;5103101;27;20055;-68
2023/05/13 07:38:14;;;;;;;8.73;4.75;;;16.50;92.30;;;;;;5095337;27;20444;-64
2023/05/13 07:40:40;;;;;;;10.65;4.65;;;16.80;84.10;;;;;;5098540;28;20051;-68
2023/05/13 07:43:06;;;;;;;6.53;4.32;;;16.90;67.00;;;;;;5085693;28;20053;-64
2023/05/13 07:45:32;;;;;;;8.98;3.80;;;17.20;80.60;;;;;;5082274;27;20401;-65
2023/05/13 07:47:57;;;;;;;6.57;4.32;;;17.40;73.50;;;;;;5093790;28;20058;-66
2023/05/13 07:50:23;;;;;;;6.47;4.18;;;17.60;65.20;;;;;;5122969;27;20043;-69
2023/05/13 07:52:50;;;;;;;7.22;4.45;;;17.80;49.80;;;;;;5123605;27;20504;-72
2023/05/13 07:55:16;;;;;;;9.65;4.70;;;17.90;37.00;;;;;;5088148;28;20047;-66
2023/05/13 07:57:42;;;;;;;5.88;3.90;;;17.90;39.40;;;;;;5090478;28;20462;-68
2023/05/13 08:00:09;;;;;;;4.13;3.70;;;17.90;22.00;;;;;;5102641;28;20036;-66
2023/05/13 08:02:37;;;;;;;7.03;3.80;;;17.80;25.10;;;;;;5114590;27;20047;-70
2023/05/13 08:05:04;;;;;;;4.47;3.83;;;18.00;51.60;;;;;;5118757;27;20120;-73
2023/05/13 08:07:30;;;;;;;9.35;3.70;;;18.30;41.10;;;;;;5073084;28;20158;-73
2023/05/13 08:09:56;;;;;;;6.35;3.58;;;18.30;9.30;;;;;;5063158;28;20443;-65
2023/05/13 08:12:21;;;;;;;11.57;3.78;;;18.10;16.00;;;;;;5063974;28;20081;-65
2023/05/13 08:14:47;;;;;;;6.53;3.67;;;18.10;11.10;;;;;;5123175;27;20036;-66
2023/05/13 08:17:13;;;;;;;4.45;3.42;;;18.10;27.40;;;;;;5089658;28;20055;-64
2023/05/13 08:19:39;;;;;;;11.55;3.45;;;18.20;22.80;;;;;;5072443;28;20181;-64
2023/05/13 08:22:05;;;;;;;11.25;4.38;;;18.60;32.80;;;;;;5071125;28;20035;-70
2023/05/13 08:24:31;;;;;;;6.63;3.20;;;18.70;8.60;;;;;;5088903;27;20043;-63
2023/05/13 08:26:56;;;;;;;5.50;3.40;;;18.70;11.30;;;;;;5092524;28;20054;-67
2023/05/13 08:29:22;;;;;;;5.50;3.53;;;18.70;13.00;;;;;;5089965;28;20047;-65
2023/05/13 08:31:49;;;;;;;5.55;3.40;;;18.80;5.10;;;;;;5107569;28;20038;-70
2023/05/13 08:34:15;;;;;;;9.50;3.10;;;18.90;13.20;;;;;;5072895;28;20044;-67
2023/05/13 08:36:41;;;;;;;6.03;3.65;;;19.10;7.00;;;;;;5081879;28;20408;-68
2023/05/13 08:39:07;;;;;;;7.53;3.55;;;19.30;12.10;;;;;;5088598;27;20042;-65
2023/05/13 08:41:33;;;;;;;6.18;3.20;;;19.30;13.00;;;;;;5055447;28;20124;-63
2023/05/13 08:44:02;;;;;;;7.68;3.65;;;19.40;9.10;;;;;;5089509;28;20590;-69
2023/05/13 08:46:31;;;;;;;6.43;3.20;;;19.40;13.40;;;;;;5071840;28;20050;-68
2023/05/13 08:48:58;;;;;;;5.82;2.75;;;19.40;12.10;;;;;;5123255;27;20347;-67
2023/05/13 08:51:24;;;;;;;5.40;3.17;;;19.50;15.40;;;;;;5105543;28;20134;-72
2023/05/13 08:53:51;;;;;;;3.58;3.10;;;19.60;1.50;;;;;;5071848;28;20579;-68
2023/05/13 08:56:17;;;;;;;3.08;2.75;;;19.60;8.20;;;;;;5089377;28;20463;-66
2023/05/13 08:58:43;;;;;;;5.40;3.17;;;19.80;16.90;;;;;;5088800;28;20395;-65
2023/05/13 09:01:09;;;;;;;4.78;2.80;;;19.70;10.30;;;;;;5101356;28;20050;-67
2023/05/13 09:03:40;;;;;;;8.43;2.88;;;19.70;7.10;;;;;;5088277;28;20068;-68
2023/05/13 09:06:05;;;;;;;4.88;3.10;;;19.90;24.10;;;;;;5072043;28;20048;-67
2023/05/13 09:08:32;;;;;;;7.47;2.80;;;20.10;7.30;;;;;;5088195;28;20538;-67
2023/05/13 09:10:58;;;;;;;9.02;3.10;;;20.40;14.90;;;;;;5071555;28;20402;-69
2023/05/13 09:13:23;;;;;;;8.02;3.20;;;20.70;5.80;;;;;;5088025;28;20035;-64
2023/05/13 09:15:50;;;;;;;9.82;3.17;;;20.70;1.00;;;;;;5071527;28;20104;-65
2023/05/13 09:18:16;;;;;;;6.60;2.88;;;20.80;1.00;;;;;;5089025;28;20043;-67
2023/05/13 09:20:43;;;;;;;6.18;2.90;;;20.90;3.40;;;;;;5087648;28;20481;-71
2023/05/13 09:23:09;;;;;;;6.10;2.40;;;21.00;1.00;;;;;;5107647;27;20433;-65
2023/05/13 09:25:39;;;;;;;6.28;2.92;;;20.80;1.00;;;;;;5083038;28;20043;-68
2023/05/13 09:28:06;;;;;;;4.18;2.35;;;20.70;1.00;;;;;;5081254;28;20047;-68
2023/05/13 09:30:53;;;;;;;5.32;2.78;;;20.70;1.00;;;;;;5067664;28;20050;-73
2023/05/13 09:33:19;;;;;;;5.18;2.53;;;20.50;1.00;;;;;;5066304;28;20046;-67
2023/05/13 09:35:52;;;;;;;3.90;2.42;;;20.40;1.00;;;;;;5070443;28;20039;-63
2023/05/13 09:38:25;;;;;;;3.30;2.33;;;20.50;1.00;;;;;;5088158;28;20516;-69
2023/05/13 09:41:02;;;;;;;5.82;2.40;;;20.50;1.00;;;;;;5088133;28;20112;-63
2023/05/13 09:43:31;;;;;;;4.88;2.47;;;20.50;1.00;;;;;;5120553;28;20497;-65
2023/05/13 09:46:01;;;;;;;6.35;2.70;;;20.50;1.00;;;;;;5087497;28;20035;-61
2023/05/13 09:48:30;;;;;;;3.60;2.28;;;20.50;3.30;;;;;;5087860;28;20044;-65
2023/05/13 09:50:56;;;;;;;2.72;2.22;;;20.60;3.40;;;;;;5067431;28;20083;-65
2023/05/13 09:53:23;;;;;;;4.18;1.92;;;20.60;1.00;;;;;;5054280;28;20043;-65
2023/05/13 09:55:54;;;;;;;6.10;2.30;;;20.70;1.00;;;;;;5085815;28;20080;-61
2023/05/13 09:58:21;;;;;;;8.48;2.70;;;20.80;1.20;;;;;;5070834;28;20055;-70
2023/05/13 10:00:47;;;;;;;5.63;2.25;;;20.90;1.00;;;;;;5069850;28;20140;-66
2023/05/13 10:03:15;;;;;;;5.35;2.45;;;21.00;1.00;;;;;;5085314;28;20177;-60
2023/05/13 10:05:41;;;;;;;5.35;2.13;;;21.00;1.00;;;;;;5085027;28;20051;-62
2023/05/13 10:08:12;;;;;;;5.95;2.05;;;21.10;1.00;;;;;;5088883;28;20052;-64
2023/05/13 10:10:40;;;;;;;3.65;2.00;;;21.10;1.00;;;;;;5071254;28;20501;-73
2023/05/13 10:13:11;;;;;;;7.68;2.08;;;21.10;1.00;;;;;;5087946;28;20467;-62
2023/05/13 10:15:52;;;;;;;4.15;1.88;;;21.00;1.00;;;;;;5093225;28;20039;-67
2023/05/13 10:18:20;;;;;;;11.55;1.70;;;21.00;1.00;;;;;;5088155;28;20139;-62
2023/05/13 10:20:51;;;;;;;4.03;1.50;;;21.10;1.00;;;;;;5087768;28;20512;-64
2023/05/13 10:23:18;;;;;;;3.88;2.00;;;21.30;1.00;;;;;;5088250;28;20401;-64
2023/05/13 10:25:46;;;;;;;3.33;2.17;;;21.20;1.00;;;;;;5088618;28;20067;-70
2023/05/13 10:28:13;;;;;;;3.70;2.05;;;21.10;1.00;;;;;;5087424;28;20050;-65
2023/05/13 10:30:41;;;;;;;3.70;2.03;;;21.00;1.00;;;;;;5087947;28;20077;-62
2023/05/13 10:33:07;;;;;;;10.40;1.52;;;21.00;1.00;;;;;;5070781;28;20043;-62
2023/05/13 10:35:39;;;;;;;3.42;1.90;;;21.10;1.00;;;;;;5087901;28;20058;-65
2023/05/13 10:38:45;;;;;;;8.98;1.85;;;21.10;1.00;;;;;;5071875;28;20090;-61
2023/05/13 10:41:22;;;;;;;2.55;2.00;;;21.10;1.00;;;;;;5105760;28;20098;-62
2023/05/13 10:43:56;;;;;;;6.78;2.10;;;21.00;1.00;;;;;;5087113;28;20040;-62
2023/05/13 10:46:23;;;;;;;3.05;1.80;;;20.90;1.00;;;;;;5071139;28;20083;-64
2023/05/13 10:48:53;;;;;;;6.22;1.90;;;20.80;1.00;;;;;;5090381;28;20047;-64
2023/05/13 10:51:23;;;;;;;3.00;1.75;;;20.90;1.00;;;;;;5074989;28;20134;-70
2023/05/13 10:53:51;;;;;;;10.52;2.03;;;20.90;1.00;;;;;;5090382;28;20079;-68
2023/05/13 10:56:23;;;;;;;3.70;1.75;;;20.80;1.00;;;;;;5075456;28;20389;-63
2023/05/13 10:59:03;;;;;;;2.85;1.40;;;20.80;1.00;;;;;;5079226;28;20046;-62
2023/05/13 11:01:37;;;;;;;9.85;1.75;;;20.90;1.00;;;;;;5091360;28;20040;-63
2023/05/13 11:04:04;;;;;;;6.53;1.70;;;21.00;1.00;;;;;;5074331;28;20348;-63
2023/05/13 11:06:39;;;;;;;7.88;1.90;;;21.10;1.00;;;;;;5078519;27;20127;-66
2023/05/13 11:09:07;;;;;;;4.57;1.40;;;21.10;1.00;;;;;;5068424;28;20168;-59
2023/05/13 11:11:34;;;;;;;8.80;2.15;;;21.10;1.00;;;;;;5078296;28;20512;-68
2023/05/13 11:14:22;;;;;;;4.20;1.55;;;21.20;1.00;;;;;;5088354;28;20452;-68
2023/05/13 11:16:55;;;;;;;3.13;2.00;;;21.20;1.00;;;;;;5094002;27;20039;-60
2023/05/13 11:19:33;;;;;;;2.13;1.48;;;21.20;1.00;;;;;;5110403;27;20043;-61
2023/05/13 11:22:15;;;;;;;3.33;1.35;;;21.30;1.00;;;;;;5090713;28;20083;-61
2023/05/13 11:24:44;;;;;;;6.47;2.50;;;21.50;1.00;;;;;;5090828;28;20046;-62
2023/05/13 11:27:15;;;;;;;6.57;1.30;;;21.50;1.00;;;;;;5095374;27;20051;-68
2023/05/13 11:29:53;;;;;;;5.75;1.40;;;21.60;1.00;;;;;;5092631;28;20477;-61
2023/05/13 11:32:50;;;;;;;4.93;1.58;;;21.60;1.00;;;;;;5107695;28;20134;-63
2023/05/13 11:35:20;;;;;;;4.18;1.40;;;21.60;1.00;;;;;;5079043;28;20080;-61
2023/05/13 11:37:48;;;;;;;5.97;1.50;;;21.80;1.00;;;;;;5073397;28;20054;-67
2023/05/13 11:40:29;;;;;;;5.85;1.95;;;21.70;1.00;;;;;;5073944;27;20052;-61
2023/05/13 11:42:55;;;;;;;5.30;1.77;;;21.60;1.00;;;;;;5090487;28;20088;-60
2023/05/13 11:45:23;;;;;;;2.92;1.65;;;21.50;1.00;;;;;;5089948;28;20483;-64
2023/05/13 11:47:51;;;;;;;4.95;1.17;;;21.50;1.00;;;;;;5090567;28;20138;-69
2023/05/13 11:50:18;;;;;;;4.78;1.80;;;21.20;1.00;;;;;;5089999;28;20100;-61
2023/05/13 11:52:49;;;;;;;3.72;1.50;;;21.20;1.00;;;;;;5091660;28;20118;-64
2023/05/13 11:55:26;;;;;;;3.85;1.13;;;21.20;1.00;;;;;;5089501;28;20054;-62
2023/05/13 11:57:52;;;;;;;7.50;2.13;;;21.30;1.00;;;;;;5089403;28;20040;-66
2023/05/13 12:00:27;;;;;;;4.82;1.38;;;21.40;1.00;;;;;;5090024;28;20043;-65
2023/05/13 12:02:53;;;;;;;4.38;1.42;;;21.40;1.00;;;;;;5087648;28;20043;-66
2023/05/13 12:05:19;;;;;;;7.68;1.65;;;21.50;1.00;;;;;;5088575;28;20067;-63
2023/05/13 12:07:45;;;;;;;1.58;1.38;;;21.50;1.00;;;;;;5089618;28;20047;-65
2023/05/13 12:10:11;;;;;;;3.50;1.40;;;21.40;1.00;;;;;;5108194;27;20047;-64
2023/05/13 12:12:38;;;;;;;5.82;2.00;;;21.30;1.00;;;;;;5089318;28;20111;-63
2023/05/13 12:15:18;;;;;;;1.45;1.35;;;21.40;1.00;;;;;;5089601;27;20044;-63
2023/05/13 12:17:44;;;;;;;2.38;1.45;;;21.30;1.00;;;;;;5121110;27;20050;-71
2023/05/13 12:20:12;;;;;;;5.55;1.50;;;21.30;1.00;;;;;;5090563;28;20040;-64
2023/05/13 12:22:44;;;;;;;5.67;1.50;;;21.20;1.00;;;;;;5107435;27;20051;-63
2023/05/13 12:25:39;;;;;;;2.90;1.70;;;21.20;1.00;;;;;;5081942;27;20343;-67
2023/05/13 12:28:19;;;;;;;3.92;1.50;;;21.10;1.00;;;;;;5088384;28;20108;-63
2023/05/13 12:30:54;;;;;;;9.55;2.03;;;21.10;1.00;;;;;;5101438;27;20055;-64
2023/05/13 12:33:25;;;;;;;2.67;1.80;;;20.90;1.00;;;;;;5087046;28;20092;-65
2023/05/13 12:35:52;;;;;;;2.63;1.75;;;20.70;1.00;;;;;;5072536;28;20494;-60
2023/05/13 12:38:20;;;;;;;4.03;1.60;;;20.70;1.00;;;;;;5088797;28;20056;-60
2023/05/13 12:40:47;;;;;;;5.63;1.60;;;20.70;1.00;;;;;;5098328;27;20082;-64
2023/05/13 12:43:15;;;;;;;9.70;1.58;;;20.60;1.00;;;;;;5088785;28;20046;-66
2023/05/13 12:45:42;;;;;;;7.22;1.33;;;20.60;1.00;;;;;;5089599;28;20044;-63
2023/05/13 12:48:08;;;;;;;8.45;1.60;;;20.70;1.00;;;;;;5122723;27;20065;-65
2023/05/13 12:50:34;;;;;;;9.25;1.85;;;20.70;1.00;;;;;;5096867;27;20047;-68